sensor_id;sensor_type;location;lat;lon;timestamp;temperature;humidity
23755;DHT22;12057;52.042;6.830;2022-09-06T00:00:31;20.70;98.20
23755;DHT22;12057;52.042;6.830;2022-09-06T00:05:33;20.60;98.90
23755;DHT22;12057;52.042;6.830;2022-09-06T00:10:34;20.50;99.90
23755;DHT22;12057;52.042;6.830;2022-09-06T00:15:36;20.50;99.70
23755;DHT22;12057;52.042;6.830;2022-09-06T00:20:37;20.50;99.60
23755;DHT22;12057;52.042;6.830;2022-09-06T00:25:40;20.50;99.90
23755;DHT22;12057;52.042;6.830;2022-09-06T00:30:41;20.50;99.70
23755;DHT22;12057;52.042;6.830;2022-09-06T00:35:41;20.40;99.90
23755;DHT22;12057;52.042;6.830;2022-09-06T00:40:49;20.40;99.90
23755;DHT22;12057;52.042;6.830;2022-09-06T00:45:50;20.40;99.90
23755;DHT22;12057;52.042;6.830;2022-09-06T00:50:52;20.30;99.90
23755;DHT22;12057;52.042;6.830;2022-09-06T00:55:53;20.30;99.90
23755;DHT22;12057;52.042;6.830;2022-09-06T01:00:54;20.30;99.90
23755;DHT22;12057;52.042;6.830;2022-09-06T01:11:18;20.30;99.90
23755;DHT22;12057;52.042;6.830;2022-09-06T01:16:28;20.30;99.90
23755;DHT22;12057;52.042;6.830;2022-09-06T01:31:47;20.20;99.90
23755;DHT22;12057;52.042;6.830;2022-09-06T01:41:50;20.10;99.90
23755;DHT22;12057;52.042;6.830;2022-09-06T01:46:57;20.00;99.90
23755;DHT22;12057;52.042;6.830;2022-09-06T02:02:23;20.00;99.90
23755;DHT22;12057;52.042;6.830;2022-09-06T02:07:26;20.00;99.90
23755;DHT22;12057;52.042;6.830;2022-09-06T02:12:28;19.90;99.90
23755;DHT22;12057;52.042;6.830;2022-09-06T02:17:32;19.90;99.90
23755;DHT22;12057;52.042;6.830;2022-09-06T02:22:35;19.90;99.90
23755;DHT22;12057;52.042;6.830;2022-09-06T02:27:40;19.90;99.90
23755;DHT22;12057;52.042;6.830;2022-09-06T02:32:48;19.80;99.90
23755;DHT22;12057;52.042;6.830;2022-09-06T02:37:50;19.80;99.90
23755;DHT22;12057;52.042;6.830;2022-09-06T02:42:51;19.70;99.90
23755;DHT22;12057;52.042;6.830;2022-09-06T02:47:53;19.70;99.90
23755;DHT22;12057;52.042;6.830;2022-09-06T02:53:04;19.70;99.90
23755;DHT22;12057;52.042;6.830;2022-09-06T02:58:07;19.70;99.90
23755;DHT22;12057;52.042;6.830;2022-09-06T03:03:08;19.70;99.90
23755;DHT22;12057;52.042;6.830;2022-09-06T03:08:08;19.70;99.90
23755;DHT22;12057;52.042;6.830;2022-09-06T03:13:09;19.70;99.90
23755;DHT22;12057;52.042;6.830;2022-09-06T03:18:09;19.70;99.90
23755;DHT22;12057;52.042;6.830;2022-09-06T03:23:10;19.60;99.90
23755;DHT22;12057;52.042;6.830;2022-09-06T03:28:11;19.60;99.90
23755;DHT22;12057;52.042;6.830;2022-09-06T03:33:12;19.60;99.90
23755;DHT22;12057;52.042;6.830;2022-09-06T03:38:12;19.60;99.90
23755;DHT22;12057;52.042;6.830;2022-09-06T03:43:13;19.70;99.90
23755;DHT22;12057;52.042;6.830;2022-09-06T03:48:14;19.70;99.90
23755;DHT22;12057;52.042;6.830;2022-09-06T03:53:16;19.80;99.90
23755;DHT22;12057;52.042;6.830;2022-09-06T03:58:17;19.70;99.90
23755;DHT22;12057;52.042;6.830;2022-09-06T04:03:21;19.70;99.90
23755;DHT22;12057;52.042;6.830;2022-09-06T04:08:22;19.60;99.90
23755;DHT22;12057;52.042;6.830;2022-09-06T04:13:22;19.70;99.90
23755;DHT22;12057;52.042;6.830;2022-09-06T04:18:23;19.60;99.90
23755;DHT22;12057;52.042;6.830;2022-09-06T04:23:25;19.70;99.90
23755;DHT22;12057;52.042;6.830;2022-09-06T04:28:26;19.70;99.90
23755;DHT22;12057;52.042;6.830;2022-09-06T04:33:27;19.50;99.90
23755;DHT22;12057;52.042;6.830;2022-09-06T04:38:29;19.60;99.90
23755;DHT22;12057;52.042;6.830;2022-09-06T04:43:30;19.50;99.90
23755;DHT22;12057;52.042;6.830;2022-09-06T04:48:30;19.40;99.90
23755;DHT22;12057;52.042;6.830;2022-09-06T04:53:31;19.50;99.90
23755;DHT22;12057;52.042;6.830;2022-09-06T04:58:32;19.30;99.90
23755;DHT22;12057;52.042;6.830;2022-09-06T05:03:33;19.30;99.90
23755;DHT22;12057;52.042;6.830;2022-09-06T05:08:35;19.30;99.90
23755;DHT22;12057;52.042;6.830;2022-09-06T05:13:36;19.20;99.90
23755;DHT22;12057;52.042;6.830;2022-09-06T05:18:36;19.10;99.90
23755;DHT22;12057;52.042;6.830;2022-09-06T05:23:37;19.10;99.90
23755;DHT22;12057;52.042;6.830;2022-09-06T05:28:38;19.00;99.90
23755;DHT22;12057;52.042;6.830;2022-09-06T05:33:38;18.90;99.90
23755;DHT22;12057;52.042;6.830;2022-09-06T05:38:39;18.90;99.90
23755;DHT22;12057;52.042;6.830;2022-09-06T05:43:40;18.90;99.90
23755;DHT22;12057;52.042;6.830;2022-09-06T05:48:40;19.00;99.90
23755;DHT22;12057;52.042;6.830;2022-09-06T05:53:41;18.90;99.90
23755;DHT22;12057;52.042;6.830;2022-09-06T05:58:42;18.90;99.90
23755;DHT22;12057;52.042;6.830;2022-09-06T06:03:50;18.90;99.90
23755;DHT22;12057;52.042;6.830;2022-09-06T06:08:52;18.90;99.90
23755;DHT22;12057;52.042;6.830;2022-09-06T06:13:52;18.90;99.90
23755;DHT22;12057;52.042;6.830;2022-09-06T06:18:53;18.80;99.90
23755;DHT22;12057;52.042;6.830;2022-09-06T06:23:55;18.90;99.90
23755;DHT22;12057;52.042;6.830;2022-09-06T06:28:57;19.00;99.90
23755;DHT22;12057;52.042;6.830;2022-09-06T06:34:01;19.10;99.90
23755;DHT22;12057;52.042;6.830;2022-09-06T06:39:08;19.30;99.90
23755;DHT22;12057;52.042;6.830;2022-09-06T06:44:11;19.50;99.90
23755;DHT22;12057;52.042;6.830;2022-09-06T06:49:12;19.50;99.90
23755;DHT22;12057;52.042;6.830;2022-09-06T06:54:16;19.50;99.90
23755;DHT22;12057;52.042;6.830;2022-09-06T06:59:19;19.70;99.90
23755;DHT22;12057;52.042;6.830;2022-09-06T07:04:20;20.00;99.90
23755;DHT22;12057;52.042;6.830;2022-09-06T07:09:21;20.30;99.90
23755;DHT22;12057;52.042;6.830;2022-09-06T07:14:22;20.50;99.90
23755;DHT22;12057;52.042;6.830;2022-09-06T07:19:23;20.70;99.90
23755;DHT22;12057;52.042;6.830;2022-09-06T07:24:24;20.90;99.90
23755;DHT22;12057;52.042;6.830;2022-09-06T07:29:24;21.10;99.90
23755;DHT22;12057;52.042;6.830;2022-09-06T07:34:25;21.40;99.90
23755;DHT22;12057;52.042;6.830;2022-09-06T07:39:26;21.60;99.90
23755;DHT22;12057;52.042;6.830;2022-09-06T07:44:27;21.90;99.90
23755;DHT22;12057;52.042;6.830;2022-09-06T07:49:29;22.10;99.90
23755;DHT22;12057;52.042;6.830;2022-09-06T07:54:30;22.40;99.90
23755;DHT22;12057;52.042;6.830;2022-09-06T07:59:31;22.70;99.90
23755;DHT22;12057;52.042;6.830;2022-09-06T08:04:32;23.00;99.90
23755;DHT22;12057;52.042;6.830;2022-09-06T08:09:33;23.30;99.90
23755;DHT22;12057;52.042;6.830;2022-09-06T08:14:34;23.60;99.90
23755;DHT22;12057;52.042;6.830;2022-09-06T08:19:35;23.80;99.90
23755;DHT22;12057;52.042;6.830;2022-09-06T08:24:36;24.10;99.90
23755;DHT22;12057;52.042;6.830;2022-09-06T08:29:37;24.30;99.90
23755;DHT22;12057;52.042;6.830;2022-09-06T08:34:39;24.50;99.90
23755;DHT22;12057;52.042;6.830;2022-09-06T08:39:39;24.90;99.90
23755;DHT22;12057;52.042;6.830;2022-09-06T08:44:44;25.10;99.90
23755;DHT22;12057;52.042;6.830;2022-09-06T08:49:49;25.40;99.90
23755;DHT22;12057;52.042;6.830;2022-09-06T09:00:04;25.90;99.90
23755;DHT22;12057;52.042;6.830;2022-09-06T09:05:11;26.20;99.90
23755;DHT22;12057;52.042;6.830;2022-09-06T09:10:14;26.20;99.90
23755;DHT22;12057;52.042;6.830;2022-09-06T09:15:16;26.30;99.90
23755;DHT22;12057;52.042;6.830;2022-09-06T09:20:18;26.40;99.90
23755;DHT22;12057;52.042;6.830;2022-09-06T09:25:22;26.50;99.90
23755;DHT22;12057;52.042;6.830;2022-09-06T09:30:24;27.00;99.90
23755;DHT22;12057;52.042;6.830;2022-09-06T09:35:29;27.30;99.90
23755;DHT22;12057;52.042;6.830;2022-09-06T09:45:31;27.50;97.90
23755;DHT22;12057;52.042;6.830;2022-09-06T09:50:32;27.70;98.60
23755;DHT22;12057;52.042;6.830;2022-09-06T09:55:34;28.00;97.50
23755;DHT22;12057;52.042;6.830;2022-09-06T10:00:36;28.10;95.30
23755;DHT22;12057;52.042;6.830;2022-09-06T10:05:53;28.60;93.00
23755;DHT22;12057;52.042;6.830;2022-09-06T10:10:54;28.50;94.20
23755;DHT22;12057;52.042;6.830;2022-09-06T10:15:56;28.60;94.40
23755;DHT22;12057;52.042;6.830;2022-09-06T10:36:32;29.40;90.50
23755;DHT22;12057;52.042;6.830;2022-09-06T10:41:56;29.50;89.30
23755;DHT22;12057;52.042;6.830;2022-09-06T10:47:07;29.40;88.30
23755;DHT22;12057;52.042;6.830;2022-09-06T10:52:10;29.70;87.50
23755;DHT22;12057;52.042;6.830;2022-09-06T10:57:17;30.00;85.70
23755;DHT22;12057;52.042;6.830;2022-09-06T11:07:32;30.00;83.30
23755;DHT22;12057;52.042;6.830;2022-09-06T11:12:41;29.90;81.90
23755;DHT22;12057;52.042;6.830;2022-09-06T11:17:51;30.30;81.00
23755;DHT22;12057;52.042;6.830;2022-09-06T11:28:09;30.20;81.20
23755;DHT22;12057;52.042;6.830;2022-09-06T11:38:52;30.70;79.50
23755;DHT22;12057;52.042;6.830;2022-09-06T11:43:52;30.80;76.40
23755;DHT22;12057;52.042;6.830;2022-09-06T11:49:03;31.20;77.00
23755;DHT22;12057;52.042;6.830;2022-09-06T12:04:23;30.70;74.30
23755;DHT22;12057;52.042;6.830;2022-09-06T12:09:31;31.00;76.30
23755;DHT22;12057;52.042;6.830;2022-09-06T12:14:34;31.40;75.10
23755;DHT22;12057;52.042;6.830;2022-09-06T12:19:46;31.50;71.90
23755;DHT22;12057;52.042;6.830;2022-09-06T12:29:53;32.00;68.70
23755;DHT22;12057;52.042;6.830;2022-09-06T12:35:04;32.10;71.20
23755;DHT22;12057;52.042;6.830;2022-09-06T12:40:08;32.20;69.80
23755;DHT22;12057;52.042;6.830;2022-09-06T12:45:10;32.30;69.00
23755;DHT22;12057;52.042;6.830;2022-09-06T13:00:24;31.70;68.30
23755;DHT22;12057;52.042;6.830;2022-09-06T13:05:25;32.20;67.70
23755;DHT22;12057;52.042;6.830;2022-09-06T13:10:26;32.30;68.90
23755;DHT22;12057;52.042;6.830;2022-09-06T13:15:28;31.80;68.80
23755;DHT22;12057;52.042;6.830;2022-09-06T13:20:30;32.00;68.30
23755;DHT22;12057;52.042;6.830;2022-09-06T13:25:31;32.00;71.20
23755;DHT22;12057;52.042;6.830;2022-09-06T13:35:33;31.50;68.70
23755;DHT22;12057;52.042;6.830;2022-09-06T13:40:41;32.00;67.60
23755;DHT22;12057;52.042;6.830;2022-09-06T13:45:42;32.20;66.00
23755;DHT22;12057;52.042;6.830;2022-09-06T13:50:46;32.10;68.20
23755;DHT22;12057;52.042;6.830;2022-09-06T13:55:47;32.20;71.10
23755;DHT22;12057;52.042;6.830;2022-09-06T14:00:47;32.50;70.30
23755;DHT22;12057;52.042;6.830;2022-09-06T14:05:48;32.20;67.60
23755;DHT22;12057;52.042;6.830;2022-09-06T14:10:49;32.20;67.20
23755;DHT22;12057;52.042;6.830;2022-09-06T14:15:50;31.80;66.40
23755;DHT22;12057;52.042;6.830;2022-09-06T14:20:51;31.30;68.50
23755;DHT22;12057;52.042;6.830;2022-09-06T14:25:55;31.50;65.90
23755;DHT22;12057;52.042;6.830;2022-09-06T14:30:56;31.50;68.80
23755;DHT22;12057;52.042;6.830;2022-09-06T14:35:57;30.80;72.70
23755;DHT22;12057;52.042;6.830;2022-09-06T14:41:01;30.60;69.70
23755;DHT22;12057;52.042;6.830;2022-09-06T14:46:03;30.50;69.00
23755;DHT22;12057;52.042;6.830;2022-09-06T14:51:08;30.40;68.90
23755;DHT22;12057;52.042;6.830;2022-09-06T14:56:09;30.30;70.70
23755;DHT22;12057;52.042;6.830;2022-09-06T15:01:12;30.10;69.10
23755;DHT22;12057;52.042;6.830;2022-09-06T15:06:13;29.80;66.50
23755;DHT22;12057;52.042;6.830;2022-09-06T15:11:20;29.60;69.30
23755;DHT22;12057;52.042;6.830;2022-09-06T15:16:26;29.50;70.40
23755;DHT22;12057;52.042;6.830;2022-09-06T15:21:27;29.40;67.60
23755;DHT22;12057;52.042;6.830;2022-09-06T15:26:28;29.40;67.00
23755;DHT22;12057;52.042;6.830;2022-09-06T15:31:31;29.10;68.70
23755;DHT22;12057;52.042;6.830;2022-09-06T15:36:33;29.00;66.00
23755;DHT22;12057;52.042;6.830;2022-09-06T15:41:35;28.90;68.30
23755;DHT22;12057;52.042;6.830;2022-09-06T15:51:40;28.70;68.10
23755;DHT22;12057;52.042;6.830;2022-09-06T15:56:41;28.50;69.50
23755;DHT22;12057;52.042;6.830;2022-09-06T16:01:42;28.30;70.60
23755;DHT22;12057;52.042;6.830;2022-09-06T16:06:42;28.10;66.70
23755;DHT22;12057;52.042;6.830;2022-09-06T16:11:43;28.00;71.20
23755;DHT22;12057;52.042;6.830;2022-09-06T16:16:44;28.00;73.00
23755;DHT22;12057;52.042;6.830;2022-09-06T16:21:44;27.90;74.70
23755;DHT22;12057;52.042;6.830;2022-09-06T16:26:45;27.70;73.60
23755;DHT22;12057;52.042;6.830;2022-09-06T16:31:46;27.50;73.80
23755;DHT22;12057;52.042;6.830;2022-09-06T16:36:46;27.20;78.50
23755;DHT22;12057;52.042;6.830;2022-09-06T16:41:49;27.10;75.20
23755;DHT22;12057;52.042;6.830;2022-09-06T16:46:50;27.00;76.60
23755;DHT22;12057;52.042;6.830;2022-09-06T16:51:52;26.90;74.20
23755;DHT22;12057;52.042;6.830;2022-09-06T16:56:53;26.90;73.40
23755;DHT22;12057;52.042;6.830;2022-09-06T17:01:53;26.80;75.10
23755;DHT22;12057;52.042;6.830;2022-09-06T17:06:55;26.70;74.60
23755;DHT22;12057;52.042;6.830;2022-09-06T17:11:55;26.60;76.50
23755;DHT22;12057;52.042;6.830;2022-09-06T17:16:56;26.50;80.70
23755;DHT22;12057;52.042;6.830;2022-09-06T17:22:07;26.30;83.70
23755;DHT22;12057;52.042;6.830;2022-09-06T17:27:09;26.00;85.90
23755;DHT22;12057;52.042;6.830;2022-09-06T17:32:10;25.80;86.30
23755;DHT22;12057;52.042;6.830;2022-09-06T17:37:11;25.60;86.10
23755;DHT22;12057;52.042;6.830;2022-09-06T17:42:13;25.50;87.60
23755;DHT22;12057;52.042;6.830;2022-09-06T17:47:16;25.40;88.00
23755;DHT22;12057;52.042;6.830;2022-09-06T17:52:17;25.20;89.00
23755;DHT22;12057;52.042;6.830;2022-09-06T17:57:17;25.10;90.30
23755;DHT22;12057;52.042;6.830;2022-09-06T18:02:18;24.90;90.30
23755;DHT22;12057;52.042;6.830;2022-09-06T18:07:19;24.80;90.50
23755;DHT22;12057;52.042;6.830;2022-09-06T18:12:19;24.70;90.60
23755;DHT22;12057;52.042;6.830;2022-09-06T18:17:21;24.60;90.90
23755;DHT22;12057;52.042;6.830;2022-09-06T18:22:23;24.50;91.20
23755;DHT22;12057;52.042;6.830;2022-09-06T18:27:24;24.30;92.30
23755;DHT22;12057;52.042;6.830;2022-09-06T18:32:25;24.10;92.90
23755;DHT22;12057;52.042;6.830;2022-09-06T18:37:25;24.10;92.70
23755;DHT22;12057;52.042;6.830;2022-09-06T18:42:26;23.90;92.60
23755;DHT22;12057;52.042;6.830;2022-09-06T18:47:26;23.80;92.30
23755;DHT22;12057;52.042;6.830;2022-09-06T18:52:30;23.70;92.40
23755;DHT22;12057;52.042;6.830;2022-09-06T18:57:31;23.60;93.50
23755;DHT22;12057;52.042;6.830;2022-09-06T19:02:32;23.40;93.80
23755;DHT22;12057;52.042;6.830;2022-09-06T19:07:32;23.30;93.90
23755;DHT22;12057;52.042;6.830;2022-09-06T19:12:33;23.30;94.10
23755;DHT22;12057;52.042;6.830;2022-09-06T19:17:33;23.10;94.20
23755;DHT22;12057;52.042;6.830;2022-09-06T19:22:34;23.10;94.70
23755;DHT22;12057;52.042;6.830;2022-09-06T19:27:35;23.00;95.20
23755;DHT22;12057;52.042;6.830;2022-09-06T19:32:36;23.00;94.70
23755;DHT22;12057;52.042;6.830;2022-09-06T19:37:37;22.90;94.90
23755;DHT22;12057;52.042;6.830;2022-09-06T19:42:38;22.70;94.70
23755;DHT22;12057;52.042;6.830;2022-09-06T19:47:41;22.60;95.40
23755;DHT22;12057;52.042;6.830;2022-09-06T19:52:42;22.50;95.50
23755;DHT22;12057;52.042;6.830;2022-09-06T19:57:43;22.40;95.70
23755;DHT22;12057;52.042;6.830;2022-09-06T20:02:43;22.30;96.30
23755;DHT22;12057;52.042;6.830;2022-09-06T20:07:44;22.20;95.80
23755;DHT22;12057;52.042;6.830;2022-09-06T20:12:45;22.10;96.10
23755;DHT22;12057;52.042;6.830;2022-09-06T20:17:45;22.00;95.80
23755;DHT22;12057;52.042;6.830;2022-09-06T20:22:46;21.90;96.60
23755;DHT22;12057;52.042;6.830;2022-09-06T20:27:47;21.80;96.60
23755;DHT22;12057;52.042;6.830;2022-09-06T20:32:48;21.70;96.40
23755;DHT22;12057;52.042;6.830;2022-09-06T20:37:49;21.60;96.80
23755;DHT22;12057;52.042;6.830;2022-09-06T20:42:50;21.50;97.40
23755;DHT22;12057;52.042;6.830;2022-09-06T20:47:51;21.40;97.60
23755;DHT22;12057;52.042;6.830;2022-09-06T20:52:52;21.30;97.60
23755;DHT22;12057;52.042;6.830;2022-09-06T20:57:52;21.20;97.60
23755;DHT22;12057;52.042;6.830;2022-09-06T21:02:53;21.10;97.60
23755;DHT22;12057;52.042;6.830;2022-09-06T21:07:54;21.00;98.40
23755;DHT22;12057;52.042;6.830;2022-09-06T21:12:54;20.90;99.20
23755;DHT22;12057;52.042;6.830;2022-09-06T21:17:55;20.90;98.60
23755;DHT22;12057;52.042;6.830;2022-09-06T21:22:56;20.90;99.10
23755;DHT22;12057;52.042;6.830;2022-09-06T21:27:56;20.90;99.00
23755;DHT22;12057;52.042;6.830;2022-09-06T21:32:57;20.90;98.50
23755;DHT22;12057;52.042;6.830;2022-09-06T21:37:58;20.90;98.50
23755;DHT22;12057;52.042;6.830;2022-09-06T21:42:58;20.90;98.90
23755;DHT22;12057;52.042;6.830;2022-09-06T21:47:59;20.90;98.40
23755;DHT22;12057;52.042;6.830;2022-09-06T21:53:00;20.80;98.60
23755;DHT22;12057;52.042;6.830;2022-09-06T21:58:00;20.80;98.70
23755;DHT22;12057;52.042;6.830;2022-09-06T22:03:01;20.80;98.80
23755;DHT22;12057;52.042;6.830;2022-09-06T22:08:02;20.80;99.10
23755;DHT22;12057;52.042;6.830;2022-09-06T22:13:03;20.90;99.10
23755;DHT22;12057;52.042;6.830;2022-09-06T22:18:04;21.00;99.00
23755;DHT22;12057;52.042;6.830;2022-09-06T22:23:08;21.10;99.10
23755;DHT22;12057;52.042;6.830;2022-09-06T22:28:09;21.10;98.50
23755;DHT22;12057;52.042;6.830;2022-09-06T22:33:10;21.10;98.80
23755;DHT22;12057;52.042;6.830;2022-09-06T22:38:10;21.10;98.80
23755;DHT22;12057;52.042;6.830;2022-09-06T22:43:14;21.20;99.30
23755;DHT22;12057;52.042;6.830;2022-09-06T22:48:15;21.10;99.30
23755;DHT22;12057;52.042;6.830;2022-09-06T22:53:16;21.10;99.90
23755;DHT22;12057;52.042;6.830;2022-09-06T22:58:17;21.10;99.90
23755;DHT22;12057;52.042;6.830;2022-09-06T23:03:17;21.10;99.90
23755;DHT22;12057;52.042;6.830;2022-09-06T23:08:18;21.10;99.90
23755;DHT22;12057;52.042;6.830;2022-09-06T23:13:19;21.10;99.90
23755;DHT22;12057;52.042;6.830;2022-09-06T23:18:19;21.10;99.90
23755;DHT22;12057;52.042;6.830;2022-09-06T23:23:23;21.20;99.90
23755;DHT22;12057;52.042;6.830;2022-09-06T23:28:24;21.20;99.90
23755;DHT22;12057;52.042;6.830;2022-09-06T23:33:24;21.20;99.90
23755;DHT22;12057;52.042;6.830;2022-09-06T23:38:25;21.20;99.90
23755;DHT22;12057;52.042;6.830;2022-09-06T23:43:26;21.20;99.90
23755;DHT22;12057;52.042;6.830;2022-09-06T23:48:27;21.20;99.90
23755;DHT22;12057;52.042;6.830;2022-09-06T23:53:28;21.20;99.90
23755;DHT22;12057;52.042;6.830;2022-09-06T23:58:29;21.20;99.90
